createdAt,value
2018-05-14T00:05:27.728Z,0.92
2018-05-14T00:11:22.678Z,1.09
2018-05-14T00:17:17.695Z,0.86
2018-05-14T00:23:12.735Z,0.99
2018-05-14T00:29:07.706Z,0.91
2018-05-14T00:35:02.712Z,0.7
2018-05-14T00:40:57.709Z,0.98
2018-05-14T00:46:52.690Z,0.91
2018-05-14T00:52:47.681Z,1.04
2018-05-14T00:58:42.701Z,0.77
2018-05-14T01:04:37.721Z,0.77
2018-05-14T01:10:32.685Z,0.75
2018-05-14T01:16:27.708Z,0.69
2018-05-14T01:22:22.705Z,0.59
2018-05-14T01:28:17.685Z,0.86
2018-05-14T01:34:12.729Z,1.22
2018-05-14T01:40:07.685Z,0.81
2018-05-14T01:46:02.711Z,1.18
2018-05-14T01:51:57.751Z,1.08
2018-05-14T01:57:52.682Z,0.73
2018-05-14T02:03:47.737Z,0.98
2018-05-14T02:09:42.689Z,0.75
2018-05-14T02:15:37.728Z,0.83
2018-05-14T02:21:32.717Z,0.6
2018-05-14T02:27:27.768Z,1.03
2018-05-14T02:33:22.724Z,0.61
2018-05-14T02:39:17.697Z,0.67
2018-05-14T02:45:12.765Z,0.66
2018-05-14T02:51:07.737Z,1.06
2018-05-14T02:57:02.735Z,0.71
2018-05-14T03:02:57.754Z,0.9
2018-05-14T03:08:52.745Z,0.85
2018-05-14T03:14:47.768Z,0.93
2018-05-14T03:20:42.737Z,0.59
2018-05-14T03:26:37.730Z,0.7
2018-05-14T03:32:32.761Z,0.65
2018-05-14T03:38:27.792Z,0.61
2018-05-14T03:44:22.745Z,0.7
2018-05-14T03:50:17.736Z,0.62
2018-05-14T03:56:12.745Z,1.25
2018-05-14T04:02:07.790Z,0.84
2018-05-14T04:08:02.787Z,1.06
2018-05-14T04:13:57.788Z,0.89
2018-05-14T04:19:52.813Z,0.64
2018-05-14T04:25:47.828Z,1.23
2018-05-14T04:31:42.776Z,0.89
2018-05-14T04:37:37.768Z,0.97
2018-05-14T04:43:32.749Z,1.17
2018-05-14T04:49:27.743Z,1.14
2018-05-14T04:55:22.745Z,1.09
2018-05-14T05:01:17.744Z,0.91
2018-05-14T05:07:12.803Z,1
2018-05-14T05:13:07.769Z,1.21
2018-05-14T05:19:02.773Z,1.5
2018-05-14T05:24:57.776Z,1.33
2018-05-14T05:30:52.739Z,1.78
2018-05-14T05:36:47.773Z,1.6
2018-05-14T05:42:42.815Z,1.39
2018-05-14T05:48:37.750Z,2.18
2018-05-14T05:54:32.807Z,1.5
2018-05-14T06:00:27.807Z,1.83
2018-05-14T06:06:22.829Z,1.34
2018-05-14T06:12:17.761Z,1.07
2018-05-14T06:18:12.784Z,1.25
2018-05-14T06:24:07.779Z,1
2018-05-14T06:30:03.045Z,1.24
2018-05-14T06:35:57.755Z,0.76
2018-05-14T06:41:52.781Z,1
2018-05-14T06:47:47.877Z,1.02
2018-05-14T06:53:42.792Z,0.96
2018-05-14T06:59:37.786Z,0.84
2018-05-14T07:05:32.792Z,0.96
2018-05-14T07:11:27.884Z,1.19
2018-05-14T07:17:22.867Z,1.16
2018-05-14T07:23:17.815Z,1.22
2018-05-14T07:29:12.807Z,1.14
2018-05-14T07:35:07.807Z,0.99
2018-05-14T07:41:02.810Z,1.08
2018-05-14T07:46:57.872Z,1.12
2018-05-14T07:52:52.834Z,1.15
2018-05-14T07:58:47.863Z,1.32
2018-05-14T08:04:42.845Z,2.37
2018-05-14T08:10:37.820Z,1.79
2018-05-14T08:16:32.824Z,1.68
2018-05-14T08:22:27.830Z,2.2
2018-05-14T08:28:22.840Z,2
2018-05-14T08:34:18.062Z,2.12
2018-05-14T08:40:12.821Z,2.08
2018-05-14T08:46:07.881Z,2.66
2018-05-14T08:52:02.866Z,2.84
2018-05-14T08:57:57.823Z,2.02
2018-05-14T09:03:52.987Z,1.87
2018-05-14T09:09:47.832Z,1.9
2018-05-14T09:15:42.839Z,1.47
2018-05-14T09:21:37.864Z,1.75
2018-05-14T09:27:32.846Z,1.64
2018-05-14T09:33:27.875Z,2.3
2018-05-14T09:39:22.994Z,2.26
2018-05-14T09:45:17.846Z,1.59
2018-05-14T09:51:12.870Z,1.54
2018-05-14T09:57:07.863Z,1.59
2018-05-14T10:03:02.837Z,1.67
2018-05-14T10:08:57.862Z,0.96
2018-05-14T10:14:52.846Z,2.02
2018-05-14T10:20:47.906Z,3.77
2018-05-14T10:26:42.857Z,4.05
2018-05-14T10:32:37.851Z,4.5
2018-05-14T10:38:32.881Z,2.87
2018-05-14T10:44:27.832Z,2.59
2018-05-14T10:50:22.869Z,3.2
2018-05-14T10:56:17.972Z,3.05
2018-05-14T11:02:12.979Z,2.93
2018-05-14T11:08:07.871Z,4.57
2018-05-14T11:14:02.876Z,8.81
2018-05-14T11:19:57.893Z,7.27
2018-05-14T11:25:52.943Z,7.49
2018-05-14T11:31:47.883Z,7.33
2018-05-14T11:37:42.863Z,7.95
2018-05-14T11:43:37.914Z,8.89
2018-05-14T11:49:32.932Z,9.97
2018-05-14T11:55:27.875Z,7.75
2018-05-14T12:01:22.922Z,7.36
2018-05-14T12:07:17.887Z,5.79
2018-05-14T12:13:12.905Z,5.88
2018-05-14T12:19:07.871Z,4.48
2018-05-14T12:25:02.935Z,4.16
2018-05-14T12:30:57.906Z,2.83
2018-05-14T12:36:52.883Z,3.52
2018-05-14T12:42:47.903Z,4.63
2018-05-14T12:48:42.894Z,4.15
2018-05-14T12:54:37.921Z,3.09
2018-05-14T13:00:32.929Z,2.33
2018-05-14T13:06:27.869Z,4.86
2018-05-14T13:12:22.901Z,5.26
2018-05-14T13:18:17.890Z,4.87
2018-05-14T13:24:12.884Z,3.56
2018-05-14T13:30:07.884Z,3.57
2018-05-14T13:36:02.987Z,3.86
2018-05-14T13:41:57.877Z,4.59
2018-05-14T13:47:52.919Z,4.19
2018-05-14T13:53:47.931Z,4.71
2018-05-14T13:59:42.902Z,4.24
2018-05-14T14:05:37.932Z,2.96
2018-05-14T14:11:33.004Z,6.81
2018-05-14T14:17:27.935Z,5.85
2018-05-14T14:23:23.120Z,4.91
2018-05-14T14:29:17.956Z,5.54
2018-05-14T14:35:12.944Z,3.4
2018-05-14T14:41:07.974Z,4.33
2018-05-14T14:47:02.984Z,5.43
2018-05-14T14:52:57.965Z,6.98
2018-05-14T14:58:52.962Z,5.02
2018-05-14T15:04:47.925Z,3.64
2018-05-14T15:10:42.931Z,3.66
2018-05-14T15:16:37.977Z,3.37
2018-05-14T15:22:32.943Z,10.81
2018-05-14T15:28:27.947Z,10.95
2018-05-14T15:34:22.954Z,8.55
2018-05-14T15:40:17.962Z,6.79
2018-05-14T15:46:12.974Z,9.67
2018-05-14T15:52:07.944Z,9.9
2018-05-14T15:58:02.943Z,8.05
2018-05-14T16:03:57.953Z,6.6
2018-05-14T16:09:52.954Z,6.8
2018-05-14T16:15:47.970Z,7.51
2018-05-14T16:21:42.957Z,8.29
2018-05-14T16:27:37.954Z,8.54
2018-05-14T16:33:32.931Z,9.81
2018-05-14T16:39:28.014Z,17.96
2018-05-14T16:45:22.953Z,20.56
2018-05-14T16:51:17.975Z,19.94
2018-05-14T16:57:12.964Z,17.49
2018-05-14T17:03:07.983Z,16.95
2018-05-14T17:09:02.995Z,16.48
2018-05-14T17:14:57.982Z,14
2018-05-14T17:20:52.961Z,15.15
2018-05-14T17:26:47.968Z,16.35
2018-05-14T17:32:43.025Z,13.47
2018-05-14T17:38:37.996Z,14.01
2018-05-14T17:44:33.001Z,10.58
2018-05-14T17:50:27.961Z,11.13
2018-05-14T17:56:22.976Z,8.55
2018-05-14T18:02:17.970Z,8.23
2018-05-14T18:08:13.011Z,7.1
2018-05-14T18:14:08.019Z,6.38
2018-05-14T18:20:03.005Z,6.69
2018-05-14T18:25:57.977Z,5.98
2018-05-14T18:31:52.993Z,5.43
2018-05-14T18:37:48.006Z,5.34
2018-05-14T18:43:43.026Z,5.31
2018-05-14T18:49:37.993Z,4.49
2018-05-14T18:55:32.981Z,5
2018-05-14T19:01:27.977Z,4.39
2018-05-14T19:07:23.077Z,3.38
2018-05-14T19:13:18.010Z,3.27
2018-05-14T19:19:13.034Z,3.18
2018-05-14T19:25:08.045Z,3.65
2018-05-14T19:31:03.114Z,3.24
2018-05-14T19:36:58.013Z,3
2018-05-14T19:42:53.023Z,3.14
2018-05-14T19:48:48.017Z,3.13
2018-05-14T19:54:43.013Z,3.42
2018-05-14T20:00:38.043Z,2.76
2018-05-14T20:06:33.007Z,2.86
2018-05-14T20:12:28.005Z,2.48
2018-05-14T20:18:23.029Z,2.41
2018-05-14T20:24:18.092Z,2.29
2018-05-14T20:30:13.024Z,2.35
2018-05-14T20:36:08.046Z,1.87
2018-05-14T20:42:03.132Z,2.17
2018-05-14T20:47:57.997Z,2.09
2018-05-14T20:53:53.021Z,1.82
2018-05-14T20:59:48.134Z,1.8
2018-05-14T21:05:43.290Z,1.76
2018-05-14T21:11:38.069Z,1.79
2018-05-14T21:17:33.062Z,1.96
2018-05-14T21:23:28.004Z,1.93
2018-05-14T21:29:23.029Z,1.7
2018-05-14T21:35:18.032Z,1.67
2018-05-14T21:41:13.052Z,1.32
2018-05-14T21:47:08.047Z,1.67
2018-05-14T21:53:03.075Z,1.6
2018-05-14T21:58:58.077Z,1.74
2018-05-14T22:04:53.086Z,1.8
2018-05-14T22:10:48.081Z,1.33
2018-05-14T22:16:43.040Z,1.36
2018-05-14T22:22:38.108Z,1.59
2018-05-14T22:28:33.102Z,1.33
2018-05-14T22:34:28.079Z,1.38
2018-05-14T22:40:23.057Z,1.23
2018-05-14T22:46:18.168Z,1.1
2018-05-14T22:52:13.044Z,1.62
2018-05-14T22:58:08.031Z,1.45
2018-05-14T23:04:03.045Z,1.2
2018-05-14T23:09:58.062Z,1.63
2018-05-14T23:15:53.058Z,1.6
2018-05-14T23:21:48.078Z,1.4
2018-05-14T23:27:43.070Z,1.63
2018-05-14T23:33:38.095Z,1.54
2018-05-14T23:39:33.071Z,1.35
2018-05-14T23:45:28.113Z,1.53
2018-05-14T23:51:23.088Z,1.94
2018-05-14T23:57:18.075Z,1.88
